createdAt,value
2022-11-21T00:01:26.086Z,1.30
2022-11-21T00:03:52.843Z,1.37
2022-11-21T00:06:20.552Z,1.30
2022-11-21T00:08:47.397Z,1.50
2022-11-21T00:11:14.143Z,1.10
2022-11-21T00:13:41.480Z,1.30
2022-11-21T00:16:11.265Z,1.20
2022-11-21T00:18:38.374Z,1.37
2022-11-21T00:21:11.209Z,1.17
2022-11-21T00:23:37.899Z,1.30
2022-11-21T00:26:09.556Z,1.40
2022-11-21T00:28:36.742Z,1.23
2022-11-21T00:31:05.272Z,1.33
2022-11-21T00:33:32.597Z,1.30
2022-11-21T00:35:59.378Z,1.30
2022-11-21T00:38:27.659Z,1.40
2022-11-21T00:40:54.662Z,1.23
2022-11-21T00:43:21.492Z,1.10
2022-11-21T00:45:48.214Z,1.10
2022-11-21T00:48:14.872Z,1.10
2022-11-21T00:50:41.640Z,1.23
2022-11-21T00:53:08.361Z,1.00
2022-11-21T00:55:37.263Z,1.30
2022-11-21T00:58:03.951Z,1.13
2022-11-21T01:00:30.774Z,1.17
2022-11-21T01:02:57.504Z,1.10
2022-11-21T01:05:24.716Z,1.10
2022-11-21T01:07:51.543Z,1.03
2022-11-21T01:10:18.513Z,1.37
2022-11-21T01:12:45.403Z,1.10
2022-11-21T01:15:12.254Z,1.20
2022-11-21T01:17:38.972Z,1.10
2022-11-21T01:20:07.104Z,1.10
2022-11-21T01:22:33.911Z,1.50
2022-11-21T01:25:00.648Z,1.17
2022-11-21T01:27:27.319Z,1.20
2022-11-21T01:29:54.032Z,1.20
2022-11-21T01:32:20.774Z,1.30
2022-11-21T01:34:47.452Z,1.17
2022-11-21T01:37:14.167Z,1.20
2022-11-21T01:39:40.904Z,1.20
2022-11-21T01:42:09.465Z,1.27
2022-11-21T01:44:52.113Z,1.30
2022-11-21T01:47:19.650Z,1.30
2022-11-21T01:49:47.379Z,1.13
2022-11-21T01:52:32.328Z,1.00
2022-11-21T01:55:06.019Z,1.30
2022-11-21T01:57:42.547Z,1.50
2022-11-21T02:00:18.305Z,1.30
2022-11-21T02:02:51.505Z,1.30
2022-11-21T02:05:23.999Z,1.33
2022-11-21T02:07:54.980Z,1.37
2022-11-21T02:10:22.976Z,1.37
2022-11-21T02:12:52.577Z,1.80
2022-11-21T02:15:21.624Z,1.53
2022-11-21T02:17:48.352Z,1.43
2022-11-21T02:20:17.613Z,1.40
2022-11-21T02:23:02.478Z,1.40
2022-11-21T02:25:32.405Z,1.50
2022-11-21T02:28:04.869Z,1.57
2022-11-21T02:30:33.180Z,1.73
2022-11-21T02:32:59.895Z,1.50
2022-11-21T02:35:26.998Z,1.57
2022-11-21T02:38:13.472Z,1.30
2022-11-21T02:40:44.095Z,1.37
2022-11-21T02:43:21.818Z,1.30
2022-11-21T02:45:48.859Z,1.30
2022-11-21T02:48:16.090Z,1.50
2022-11-21T02:50:45.155Z,1.30
2022-11-21T02:53:14.809Z,1.27
2022-11-21T02:55:42.620Z,1.30
2022-11-21T02:58:09.675Z,1.40
2022-11-21T03:00:38.050Z,1.20
2022-11-21T03:03:05.379Z,1.20
2022-11-21T03:05:32.474Z,1.50
2022-11-21T03:07:59.271Z,1.43
2022-11-21T03:10:26.057Z,1.50
2022-11-21T03:13:01.040Z,1.40
2022-11-21T03:15:30.411Z,1.30
2022-11-21T03:17:57.375Z,1.30
2022-11-21T03:20:24.318Z,1.40
2022-11-21T03:22:51.277Z,1.20
2022-11-21T03:25:18.261Z,1.30
2022-11-21T03:27:45.017Z,1.77
2022-11-21T03:30:12.282Z,1.50
2022-11-21T03:32:39.047Z,1.73
2022-11-21T03:35:06.337Z,1.40
2022-11-21T03:37:33.102Z,1.50
2022-11-21T03:39:59.939Z,1.47
2022-11-21T03:42:26.979Z,1.60
2022-11-21T03:44:53.744Z,1.43
2022-11-21T03:47:20.521Z,1.17
2022-11-21T03:49:47.194Z,1.63
2022-11-21T03:52:13.941Z,1.77
2022-11-21T03:54:40.682Z,1.57
2022-11-21T03:57:07.574Z,2.07
2022-11-21T03:59:34.238Z,1.27
2022-11-21T04:02:02.029Z,1.30
2022-11-21T04:04:30.037Z,1.63
2022-11-21T04:06:57.024Z,1.63
2022-11-21T04:09:23.848Z,3.00
2022-11-21T04:11:50.799Z,1.47
2022-11-21T04:14:17.570Z,1.60
2022-11-21T04:16:44.238Z,1.73
2022-11-21T04:19:10.961Z,2.57
2022-11-21T04:21:37.995Z,1.53
2022-11-21T04:24:05.121Z,1.90
2022-11-21T04:26:31.862Z,1.90
2022-11-21T04:28:58.603Z,1.60
2022-11-21T04:31:25.396Z,1.80
2022-11-21T04:33:52.234Z,1.60
2022-11-21T04:36:19.018Z,1.83
2022-11-21T04:38:45.773Z,1.90
2022-11-21T04:41:12.514Z,2.10
2022-11-21T04:43:39.215Z,1.90
2022-11-21T04:46:06.010Z,2.67
2022-11-21T04:48:32.799Z,1.80
2022-11-21T04:50:59.580Z,1.90
2022-11-21T04:53:26.326Z,1.83
2022-11-21T04:55:53.026Z,1.93
2022-11-21T04:58:19.805Z,1.73
2022-11-21T05:00:46.482Z,1.90
2022-11-21T05:03:13.288Z,1.97
2022-11-21T05:05:40.084Z,1.77
2022-11-21T05:08:07.364Z,1.87
2022-11-21T05:10:55.231Z,2.10
2022-11-21T05:13:23.343Z,2.57
2022-11-21T05:15:57.583Z,1.30
2022-11-21T05:18:24.918Z,1.70
2022-11-21T05:20:51.829Z,1.60
2022-11-21T05:23:18.630Z,1.60
2022-11-21T05:25:45.320Z,1.50
2022-11-21T05:28:12.015Z,1.53
2022-11-21T05:30:38.867Z,1.50
2022-11-21T05:33:06.009Z,1.50
2022-11-21T05:35:32.766Z,1.40
2022-11-21T05:37:59.633Z,1.70
2022-11-21T05:40:26.777Z,1.30
2022-11-21T05:43:12.210Z,1.20
2022-11-21T05:45:38.978Z,1.17
2022-11-21T05:48:08.764Z,1.27
2022-11-21T05:50:36.777Z,1.40
2022-11-21T05:53:06.917Z,1.50
2022-11-21T05:55:36.527Z,1.50
2022-11-21T05:58:03.304Z,1.50
2022-11-21T06:00:30.305Z,1.53
2022-11-21T06:03:15.967Z,2.20
2022-11-21T06:05:42.823Z,1.47
2022-11-21T06:08:09.568Z,1.57
2022-11-21T06:10:36.318Z,1.30
2022-11-21T06:13:03.663Z,1.60
2022-11-21T06:15:30.884Z,1.40
2022-11-21T06:18:00.587Z,1.30
2022-11-21T06:20:27.439Z,1.50
2022-11-21T06:22:54.299Z,1.30
2022-11-21T06:25:21.238Z,1.40
2022-11-21T06:27:47.974Z,1.80
2022-11-21T06:30:19.165Z,1.50
2022-11-21T06:32:49.278Z,1.40
2022-11-21T06:35:16.144Z,1.50
2022-11-21T06:37:42.929Z,1.33
2022-11-21T06:40:10.371Z,1.20
2022-11-21T06:42:37.311Z,1.50
2022-11-21T06:45:04.770Z,1.43
2022-11-21T06:47:34.809Z,1.50
2022-11-21T06:50:01.768Z,1.80
2022-11-21T06:52:28.723Z,1.60
2022-11-21T06:54:55.446Z,1.63
2022-11-21T06:57:22.229Z,1.50
2022-11-21T06:59:48.908Z,1.47
2022-11-21T07:02:15.943Z,1.70
2022-11-21T07:04:42.780Z,1.70
2022-11-21T07:07:09.616Z,1.90
2022-11-21T07:09:36.803Z,1.83
2022-11-21T07:12:22.569Z,2.40
2022-11-21T07:14:49.378Z,1.90
2022-11-21T07:17:16.275Z,2.63
2022-11-21T07:19:43.044Z,1.27
2022-11-21T07:22:09.787Z,1.50
2022-11-21T07:24:36.509Z,1.60
2022-11-21T07:27:03.297Z,1.57
2022-11-21T07:29:30.439Z,1.20
2022-11-21T07:31:57.461Z,1.30
2022-11-21T07:34:25.591Z,1.80
2022-11-21T07:36:52.503Z,1.57
2022-11-21T07:39:19.752Z,1.50
2022-11-21T07:41:46.512Z,1.20
2022-11-21T07:44:13.283Z,1.30
2022-11-21T07:46:40.073Z,1.37
2022-11-21T07:49:06.796Z,1.30
2022-11-21T07:51:33.627Z,1.40
2022-11-21T07:54:00.806Z,1.70
2022-11-21T07:56:27.739Z,1.30
2022-11-21T07:58:54.486Z,1.67
2022-11-21T08:01:21.457Z,1.50
2022-11-21T08:03:48.315Z,1.53
2022-11-21T08:06:15.215Z,1.30
2022-11-21T08:08:42.181Z,2.20
2022-11-21T08:11:08.967Z,1.90
2022-11-21T08:13:35.853Z,1.70
2022-11-21T08:16:05.325Z,1.97
2022-11-21T08:18:32.432Z,2.20
2022-11-21T08:21:05.133Z,1.90
2022-11-21T08:23:32.091Z,1.73
2022-11-21T08:25:59.356Z,1.70
2022-11-21T08:28:26.178Z,1.80
2022-11-21T08:30:53.350Z,1.50
2022-11-21T08:33:20.366Z,2.20
2022-11-21T08:35:47.165Z,2.33
2022-11-21T08:38:14.048Z,2.57
2022-11-21T08:40:40.861Z,2.07
2022-11-21T08:43:09.365Z,2.30
2022-11-21T08:45:37.656Z,2.90
2022-11-21T08:48:09.301Z,2.33
2022-11-21T08:50:36.068Z,1.90
2022-11-21T08:53:03.561Z,2.27
2022-11-21T08:55:31.095Z,1.80
2022-11-21T08:57:58.641Z,1.80
2022-11-21T09:00:25.461Z,2.00
2022-11-21T09:02:52.259Z,1.63
2022-11-21T09:05:19.171Z,2.20
2022-11-21T09:07:47.300Z,1.80
2022-11-21T09:10:14.635Z,1.87
2022-11-21T09:12:41.480Z,1.40
2022-11-21T09:15:29.072Z,1.60
2022-11-21T09:18:04.994Z,1.80
2022-11-21T09:20:34.203Z,1.43
2022-11-21T09:23:12.761Z,1.70
2022-11-21T09:25:39.930Z,1.40
2022-11-21T09:28:09.009Z,1.63
2022-11-21T09:30:36.374Z,1.80
2022-11-21T09:33:08.438Z,1.77
2022-11-21T09:35:35.454Z,2.27
2022-11-21T09:38:02.502Z,1.83
2022-11-21T09:40:34.442Z,1.87
2022-11-21T09:43:07.391Z,1.97
2022-11-21T09:45:46.800Z,2.40
2022-11-21T09:48:22.855Z,1.90
2022-11-21T09:50:56.761Z,1.57
2022-11-21T09:53:38.653Z,2.00
2022-11-21T09:56:14.177Z,2.40
2022-11-21T09:58:49.113Z,1.40
2022-11-21T10:01:17.336Z,1.80
2022-11-21T10:03:47.326Z,2.10
2022-11-21T10:06:52.504Z,1.67
2022-11-21T10:09:28.313Z,2.13
2022-11-21T10:12:34.300Z,2.00
2022-11-21T10:15:04.823Z,2.00
2022-11-21T10:17:59.250Z,1.70
2022-11-21T10:20:37.518Z,2.37
2022-11-21T10:23:22.902Z,1.83
2022-11-21T10:25:57.618Z,1.83
2022-11-21T10:28:37.591Z,2.10
2022-11-21T10:31:08.933Z,2.47
2022-11-21T10:33:40.414Z,2.27
2022-11-21T10:36:36.103Z,1.77
2022-11-21T10:39:16.901Z,2.17
2022-11-21T10:42:04.260Z,1.67
2022-11-21T10:44:49.856Z,2.07
2022-11-21T10:47:27.837Z,2.90
2022-11-21T10:50:09.792Z,2.10
2022-11-21T10:52:46.212Z,1.60
2022-11-21T10:55:14.500Z,1.80
2022-11-21T10:57:48.277Z,1.90
2022-11-21T11:00:21.515Z,2.00
2022-11-21T11:02:57.830Z,1.93
2022-11-21T11:05:26.759Z,1.73
2022-11-21T11:08:02.686Z,1.63
2022-11-21T11:10:31.406Z,1.90
2022-11-21T11:13:44.492Z,2.23
2022-11-21T11:16:15.650Z,2.77
2022-11-21T11:18:56.592Z,1.70
2022-11-21T11:21:27.552Z,2.03
2022-11-21T11:24:05.719Z,1.80
2022-11-21T11:26:34.068Z,2.13
2022-11-21T11:29:19.157Z,2.10
2022-11-21T11:31:58.531Z,1.80
2022-11-21T11:34:47.507Z,2.00
2022-11-21T11:37:43.837Z,3.23
2022-11-21T11:40:36.955Z,2.30
2022-11-21T11:43:25.305Z,1.93
2022-11-21T11:46:35.182Z,2.13
2022-11-21T11:49:24.884Z,2.23
2022-11-21T11:52:02.344Z,2.70
2022-11-21T11:54:47.054Z,2.37
2022-11-21T11:57:14.538Z,1.90
2022-11-21T11:59:48.170Z,2.13
2022-11-21T12:02:29.171Z,2.47
2022-11-21T12:05:13.287Z,2.90
2022-11-21T12:11:05.499Z,1.80
2022-11-21T12:13:36.485Z,2.03
2022-11-21T12:16:13.453Z,2.27
2022-11-21T12:18:49.962Z,1.90
2022-11-21T12:21:18.913Z,1.90
2022-11-21T12:23:58.596Z,1.90
2022-11-21T12:26:35.855Z,2.07
2022-11-21T12:29:22.599Z,2.13
2022-11-21T12:32:19.142Z,1.57
2022-11-21T12:35:12.174Z,2.37
2022-11-21T12:38:08.170Z,2.50
2022-11-21T12:41:00.942Z,2.33
2022-11-21T12:43:36.605Z,2.20
2022-11-21T12:46:10.933Z,1.90
2022-11-21T12:49:09.867Z,1.87
2022-11-21T12:52:07.303Z,2.10
2022-11-21T12:54:54.929Z,1.60
2022-11-21T12:57:31.199Z,1.60
2022-11-21T13:00:12.587Z,1.67
2022-11-21T13:02:51.587Z,2.83
2022-11-21T13:05:30.573Z,1.30
2022-11-21T13:08:24.224Z,1.40
2022-11-21T13:11:47.427Z,1.70
2022-11-21T13:14:41.868Z,1.40
2022-11-21T13:17:34.655Z,1.70
2022-11-21T13:20:33.006Z,2.53
2022-11-21T13:23:01.882Z,1.87
2022-11-21T13:25:40.595Z,1.97
2022-11-21T13:28:13.804Z,1.70
2022-11-21T13:30:52.195Z,1.70
2022-11-21T13:33:37.442Z,1.97
2022-11-21T13:36:37.052Z,1.70
2022-11-21T13:39:03.729Z,1.60
2022-11-21T13:41:54.925Z,2.07
2022-11-21T13:44:31.012Z,1.60
2022-11-21T13:47:15.108Z,2.17
2022-11-21T13:49:53.922Z,2.10
2022-11-21T13:52:20.739Z,1.97
2022-11-21T13:55:16.385Z,1.90
2022-11-21T13:58:17.104Z,2.30
2022-11-21T14:01:21.681Z,1.77
2022-11-21T14:04:03.409Z,2.10
2022-11-21T14:06:43.234Z,1.57
2022-11-21T14:09:13.300Z,1.80
2022-11-21T14:11:48.484Z,1.90
2022-11-21T14:14:55.856Z,3.33
2022-11-21T14:18:01.395Z,2.87
2022-11-21T14:20:58.224Z,2.50
2022-11-21T14:23:30.199Z,2.33
2022-11-21T14:26:02.123Z,1.97
2022-11-21T14:28:34.807Z,2.00
2022-11-21T14:31:03.810Z,1.97
2022-11-21T14:33:34.784Z,2.20
2022-11-21T14:36:12.960Z,2.07
2022-11-21T14:38:57.493Z,1.60
2022-11-21T14:41:37.046Z,2.33
2022-11-21T14:44:06.350Z,2.83
2022-11-21T14:46:36.533Z,2.70
2022-11-21T14:49:18.644Z,3.17
2022-11-21T14:51:53.224Z,3.10
2022-11-21T14:54:32.549Z,3.57
2022-11-21T14:57:07.528Z,4.07
2022-11-21T14:59:40.297Z,3.07
2022-11-21T15:02:17.237Z,3.17
2022-11-21T15:04:44.894Z,3.07
2022-11-21T15:07:31.749Z,3.37
2022-11-21T15:10:33.477Z,3.57
2022-11-21T15:12:48.741Z,3.57
2022-11-21T15:15:24.205Z,4.60
2022-11-21T15:18:24.311Z,5.60
2022-11-21T15:20:49.235Z,5.03
2022-11-21T15:23:38.478Z,4.73
2022-11-21T15:26:05.733Z,4.67
2022-11-21T15:28:33.204Z,3.97
2022-11-21T15:31:20.932Z,4.00
2022-11-21T15:34:19.212Z,4.30
2022-11-21T15:36:41.566Z,4.57
2022-11-21T15:39:21.404Z,6.07
2022-11-21T15:41:48.289Z,6.23
2022-11-21T15:44:21.537Z,7.10
2022-11-21T15:46:52.442Z,6.20
2022-11-21T15:49:32.475Z,5.93
2022-11-21T15:52:09.553Z,6.47
2022-11-21T15:54:36.799Z,5.70
2022-11-21T15:57:03.683Z,6.27
2022-11-21T15:59:30.745Z,6.17
2022-11-21T16:01:58.058Z,6.17
2022-11-21T16:04:27.423Z,6.40
2022-11-21T16:06:54.870Z,6.73
2022-11-21T16:09:22.035Z,5.47
2022-11-21T16:11:48.822Z,5.50
2022-11-21T16:14:18.335Z,7.40
2022-11-21T16:16:47.357Z,5.63
2022-11-21T16:19:15.997Z,6.37
2022-11-21T16:21:43.382Z,5.77
2022-11-21T16:24:10.311Z,5.63
2022-11-21T16:26:37.246Z,6.33
2022-11-21T16:29:07.057Z,6.87
2022-11-21T16:31:34.490Z,6.27
2022-11-21T16:34:01.539Z,6.47
2022-11-21T16:36:30.117Z,7.37
2022-11-21T16:39:01.895Z,5.50
2022-11-21T16:41:32.301Z,5.60
2022-11-21T16:43:59.165Z,5.20
2022-11-21T16:46:26.181Z,5.00
2022-11-21T16:49:01.591Z,5.07
2022-11-21T16:51:29.087Z,6.67
2022-11-21T16:53:57.577Z,5.73
2022-11-21T16:56:24.690Z,6.07
2022-11-21T16:58:51.581Z,7.17
2022-11-21T17:01:23.521Z,7.60
2022-11-21T17:03:51.089Z,7.40
2022-11-21T17:06:21.346Z,6.87
2022-11-21T17:08:49.141Z,7.63
2022-11-21T17:11:28.131Z,7.70
2022-11-21T17:13:55.970Z,8.50
2022-11-21T17:16:23.554Z,8.67
2022-11-21T17:18:58.120Z,8.27
2022-11-21T17:21:25.656Z,9.20
2022-11-21T17:23:53.336Z,7.13
2022-11-21T17:26:22.458Z,8.07
2022-11-21T17:28:53.425Z,8.40
2022-11-21T17:31:20.746Z,8.37
2022-11-21T17:33:51.666Z,8.80
2022-11-21T17:36:23.315Z,6.30
2022-11-21T17:38:50.265Z,6.57
2022-11-21T17:41:19.214Z,6.33
2022-11-21T17:43:47.291Z,5.53
2022-11-21T17:46:20.126Z,5.57
2022-11-21T17:48:54.533Z,8.30
2022-11-21T17:51:25.682Z,6.93
2022-11-21T17:53:52.852Z,7.17
2022-11-21T17:56:25.056Z,7.83
2022-11-21T17:58:52.836Z,7.23
2022-11-21T18:01:20.574Z,6.13
2022-11-21T18:03:59.029Z,6.00
2022-11-21T18:06:28.634Z,8.10
2022-11-21T18:08:59.493Z,7.77
2022-11-21T18:11:38.960Z,6.73
2022-11-21T18:14:07.566Z,6.97
2022-11-21T18:16:34.499Z,5.53
2022-11-21T18:19:01.826Z,6.20
2022-11-21T18:21:30.991Z,6.60
2022-11-21T18:23:59.602Z,8.10
2022-11-21T18:26:31.830Z,8.97
2022-11-21T18:29:28.665Z,8.17
2022-11-21T18:31:47.951Z,9.10
2022-11-21T18:34:14.706Z,9.77
2022-11-21T18:36:41.563Z,10.27
2022-11-21T18:39:14.284Z,10.10
2022-11-21T18:41:47.082Z,9.07
2022-11-21T18:44:21.500Z,8.77
2022-11-21T18:46:48.661Z,8.30
2022-11-21T18:49:15.408Z,7.73
2022-11-21T18:51:42.164Z,6.50
2022-11-21T18:54:10.488Z,5.70
2022-11-21T18:56:38.656Z,6.37
2022-11-21T18:59:06.846Z,6.63
2022-11-21T19:01:35.649Z,5.83
2022-11-21T19:04:02.809Z,5.80
2022-11-21T19:06:29.825Z,6.20
2022-11-21T19:08:58.076Z,5.43
2022-11-21T19:11:27.826Z,6.73
2022-11-21T19:13:56.013Z,6.40
2022-11-21T19:16:25.907Z,7.50
2022-11-21T19:21:43.447Z,6.90
2022-11-21T19:24:14.709Z,6.27
2022-11-21T19:26:41.818Z,5.53
2022-11-21T19:29:09.320Z,5.53
2022-11-21T19:31:42.658Z,5.03
2022-11-21T19:34:13.004Z,4.83
2022-11-21T19:36:40.015Z,5.33
2022-11-21T19:39:07.674Z,4.73
2022-11-21T19:41:34.455Z,4.83
2022-11-21T19:44:02.393Z,4.80
2022-11-21T19:46:31.436Z,5.13
2022-11-21T19:48:59.409Z,4.50
2022-11-21T19:51:39.307Z,3.90
2022-11-21T19:54:07.430Z,4.00
2022-11-21T19:56:34.494Z,4.47
2022-11-21T19:59:01.875Z,4.23
2022-11-21T20:01:30.758Z,3.93
2022-11-21T20:04:00.374Z,4.67
2022-11-21T20:06:33.439Z,4.40
2022-11-21T20:09:16.204Z,4.47
2022-11-21T20:11:45.456Z,4.90
2022-11-21T20:14:21.334Z,4.37
2022-11-21T20:16:49.734Z,4.77
2022-11-21T20:19:18.717Z,4.73
2022-11-21T20:21:46.351Z,5.20
2022-11-21T20:24:13.574Z,4.57
2022-11-21T20:26:41.640Z,4.83
2022-11-21T20:29:13.789Z,5.47
2022-11-21T20:31:41.809Z,5.10
2022-11-21T20:34:15.129Z,5.27
2022-11-21T20:36:43.135Z,5.60
2022-11-21T20:39:15.643Z,6.33
2022-11-21T20:41:42.465Z,5.70
2022-11-21T20:47:06.717Z,6.60
2022-11-21T20:49:33.727Z,6.57
2022-11-21T20:54:47.500Z,6.07
2022-11-21T20:57:15.505Z,5.53
2022-11-21T20:59:43.206Z,6.93
2022-11-21T21:02:14.164Z,6.73
2022-11-21T21:04:41.654Z,5.57
2022-11-21T21:07:08.601Z,6.30
2022-11-21T21:09:35.444Z,5.57
2022-11-21T21:12:02.263Z,6.37
2022-11-21T21:14:29.018Z,5.40
2022-11-21T21:16:55.801Z,5.03
2022-11-21T21:19:22.706Z,4.57
2022-11-21T21:21:49.785Z,5.20
2022-11-21T21:24:17.172Z,5.50
2022-11-21T21:26:48.698Z,5.57
2022-11-21T21:29:18.516Z,4.60
2022-11-21T21:31:51.002Z,4.23
2022-11-21T21:34:21.055Z,4.80
2022-11-21T21:36:48.098Z,4.60
2022-11-21T21:39:14.896Z,4.03
2022-11-21T21:41:46.040Z,3.87
2022-11-21T21:44:13.329Z,4.40
2022-11-21T21:46:40.129Z,3.73
2022-11-21T21:49:06.930Z,4.53
2022-11-21T21:51:33.771Z,3.87
2022-11-21T21:54:05.765Z,2.97
2022-11-21T21:56:33.652Z,3.63
2022-11-21T21:59:00.532Z,3.93
2022-11-21T22:01:29.779Z,3.13
2022-11-21T22:03:59.482Z,4.30
2022-11-21T22:06:26.447Z,3.53
2022-11-21T22:08:54.368Z,3.40
2022-11-21T22:11:29.451Z,4.60
2022-11-21T22:13:59.208Z,3.13
2022-11-21T22:16:26.553Z,2.33
2022-11-21T22:18:53.585Z,1.63
2022-11-21T22:21:28.047Z,2.80
2022-11-21T22:24:24.275Z,2.93
2022-11-21T22:26:43.301Z,3.40
2022-11-21T22:29:10.298Z,4.10
2022-11-21T22:31:37.629Z,3.00
2022-11-21T22:34:04.622Z,1.90
2022-11-21T22:36:31.480Z,1.70
2022-11-21T22:38:58.441Z,2.07
2022-11-21T22:41:26.808Z,2.10
2022-11-21T22:43:59.277Z,2.37
2022-11-21T22:46:28.353Z,2.20
2022-11-21T22:48:55.292Z,1.80
2022-11-21T22:51:29.260Z,2.27
2022-11-21T22:53:56.849Z,2.00
2022-11-21T22:56:24.750Z,2.23
2022-11-21T22:58:52.086Z,2.27
2022-11-21T23:01:25.460Z,2.17
2022-11-21T23:03:53.369Z,2.00
2022-11-21T23:06:23.618Z,2.00
2022-11-21T23:08:51.904Z,2.13
2022-11-21T23:11:24.360Z,2.53
2022-11-21T23:13:51.755Z,1.90
2022-11-21T23:16:19.991Z,2.20
2022-11-21T23:18:47.208Z,2.00
2022-11-21T23:21:15.030Z,2.60
2022-11-21T23:23:42.097Z,2.40
2022-11-21T23:26:10.147Z,1.70
2022-11-21T23:28:37.119Z,2.13
2022-11-21T23:31:03.832Z,2.33
2022-11-21T23:33:30.692Z,2.00
2022-11-21T23:35:57.471Z,2.00
2022-11-21T23:38:24.201Z,2.03
2022-11-21T23:40:50.932Z,2.17
2022-11-21T23:43:18.889Z,2.37
2022-11-21T23:45:51.069Z,2.13
2022-11-21T23:48:18.604Z,2.40
2022-11-21T23:50:47.126Z,2.40
2022-11-21T23:53:14.494Z,2.33
2022-11-21T23:55:42.314Z,2.03
2022-11-21T23:58:09.137Z,2.57
